Time;durP1;ratioP1;P1;durP2;ratioP2;P2;SDS_P1;SDS_P2;PMS_P1;PMS_P2;Temp;Humidity;BMP_temperature;BMP_pressure;BME280_temperature;BME280_humidity;BME280_pressure;Samples;Min_cycle;Max_cycle;Signal;HPM_P1;HPM_P2
2023/02/28 00:00:46;;;;;;;20.25;18.42;;;;;;;-0.72;79.86;95758.56;5047907;28;20032;-68
2023/02/28 00:03:12;;;;;;;37.42;29.48;;;;;;;-0.74;81.11;95754.38;5050044;28;20029;-68
2023/02/28 00:05:37;;;;;;;65.15;47.15;;;;;;;-0.74;80.98;95759.56;5051504;28;20029;-69
2023/02/28 00:08:03;;;;;;;27.17;23.85;;;;;;;-0.74;80.40;95760.38;5049530;28;20021;-59
2023/02/28 00:10:30;;;;;;;44.40;34.28;;;;;;;-0.79;80.75;95764.09;5054827;28;20508;-62
2023/02/28 00:12:59;;;;;;;44.00;35.65;;;;;;;-0.79;80.70;95753.75;5031171;28;20018;-55
2023/02/28 00:15:25;;;;;;;51.85;39.80;;;;;;;-0.83;80.79;95757.38;5046934;28;20025;-55
2023/02/28 00:17:51;;;;;;;38.28;30.30;;;;;;;-0.87;80.63;95760.09;5052588;28;20112;-51
2023/02/28 00:20:17;;;;;;;39.78;32.38;;;;;;;-0.86;80.77;95758.38;5054058;28;20091;-53
2023/02/28 00:22:45;;;;;;;38.20;27.50;;;;;;;-0.87;80.56;95761.88;5048700;28;20030;-52
2023/02/28 00:25:13;;;;;;;42.55;31.10;;;;;;;-0.87;80.90;95757.53;5053488;28;20032;-53
2023/02/28 00:27:40;;;;;;;44.10;30.65;;;;;;;-0.84;80.73;95768.63;5049587;28;20017;-70
2023/02/28 00:30:07;;;;;;;43.50;30.98;;;;;;;-0.84;81.50;95766.91;5052115;28;20033;-64
2023/02/28 00:32:34;;;;;;;29.52;23.40;;;;;;;-0.84;80.87;95760.88;5050565;28;20117;-59
2023/02/28 00:35:00;;;;;;;23.23;21.02;;;;;;;-0.83;81.16;95768.56;5047536;28;20032;-59
2023/02/28 00:37:25;;;;;;;18.65;17.02;;;;;;;-0.72;80.89;95766.31;5052922;28;20029;-59
2023/02/28 00:39:50;;;;;;;20.30;17.95;;;;;;;-0.74;80.92;95762.16;5051277;28;20548;-59
2023/02/28 00:42:16;;;;;;;45.08;33.35;;;;;;;-0.78;81.41;95771.78;5048667;28;20115;-57
2023/02/28 00:44:41;;;;;;;37.45;27.75;;;;;;;-0.85;81.40;95764.38;5047666;28;20023;-59
2023/02/28 00:47:07;;;;;;;73.07;41.80;;;;;;;-0.90;81.49;95767.16;5048862;28;20090;-59
2023/02/28 00:49:32;;;;;;;61.95;36.97;;;;;;;-0.91;82.02;95773.25;5054884;28;20041;-59
2023/02/28 00:51:58;;;;;;;30.38;24.05;;;;;;;-0.89;82.34;95769.69;5047515;28;20021;-59
2023/02/28 00:54:23;;;;;;;70.55;39.28;;;;;;;-0.85;82.00;95772.97;5053632;28;20361;-59
2023/02/28 00:56:50;;;;;;;39.53;28.48;;;;;;;-0.85;81.52;95770.41;5053067;28;20048;-59
2023/02/28 00:59:16;;;;;;;22.05;19.75;;;;;;;-0.77;81.66;95768.28;5053923;28;20025;-60
2023/02/28 01:01:43;;;;;;;19.58;17.80;;;;;;;-0.81;81.86;95769.34;5053960;28;20048;-60
2023/02/28 01:04:08;;;;;;;19.40;17.67;;;;;;;-0.79;81.93;95769.25;5054038;28;20035;-60
2023/02/28 01:06:33;;;;;;;22.10;19.75;;;;;;;-0.83;82.04;95758.22;5056247;28;20543;-61
2023/02/28 01:08:59;;;;;;;23.10;20.65;;;;;;;-0.85;81.49;95756.63;5057189;28;20018;-60
2023/02/28 01:11:25;;;;;;;20.55;18.45;;;;;;;-0.89;82.14;95759.34;5054640;28;20051;-62
2023/02/28 01:13:51;;;;;;;19.23;17.42;;;;;;;-0.87;82.20;95747.19;5050970;28;20040;-62
2023/02/28 01:16:17;;;;;;;19.88;18.02;;;;;;;-0.87;82.31;95747.19;5056982;28;20115;-62
2023/02/28 01:18:43;;;;;;;17.85;16.38;;;;;;;-0.85;82.47;95751.44;5052106;28;20032;-62
2023/02/28 01:21:14;;;;;;;17.60;16.10;;;;;;;-0.79;82.65;95753.75;5050789;28;20509;-62
2023/02/28 01:23:40;;;;;;;18.30;16.70;;;;;;;-0.80;82.62;95746.91;5054896;28;20051;-61
2023/02/28 01:26:21;;;;;;;20.42;18.40;;;;;;;-0.80;83.04;95749.47;5058790;28;20140;-69
2023/02/28 01:28:46;;;;;;;21.70;19.80;;;;;;;-0.74;82.20;95751.81;5054012;28;20040;-60
2023/02/28 01:31:12;;;;;;;21.73;19.73;;;;;;;-0.78;82.91;95750.25;5047928;28;20402;-59
2023/02/28 01:33:38;;;;;;;19.95;18.05;;;;;;;-0.82;83.13;95757.31;5047654;28;20524;-59
2023/02/28 01:36:06;;;;;;;20.98;18.88;;;;;;;-0.82;82.90;95757.31;5044073;28;20486;-60
2023/02/28 01:38:33;;;;;;;22.42;20.23;;;;;;;-0.83;82.93;95754.78;5048682;28;20032;-60
2023/02/28 01:40:58;;;;;;;22.15;20.05;;;;;;;-0.83;82.82;95753.06;5044471;28;20056;-59
2023/02/28 01:43:44;;;;;;;22.02;19.77;;;;;;;-0.83;82.97;95762.56;5039845;28;20204;-60
2023/02/28 01:46:10;;;;;;;20.95;18.98;;;;;;;-0.90;83.13;95757.66;5042595;28;20034;-68
2023/02/28 01:48:40;;;;;;;20.77;19.05;;;;;;;-0.90;83.03;95765.41;5046497;28;20041;-64
2023/02/28 01:51:12;;;;;;;20.30;18.60;;;;;;;-0.91;83.47;95771.50;5040790;28;20033;-64
2023/02/28 01:53:44;;;;;;;20.60;18.90;;;;;;;-0.89;83.38;95774.84;5044273;28;20482;-64
2023/02/28 01:56:20;;;;;;;24.30;21.75;;;;;;;-0.87;83.55;95760.09;5042953;28;20047;-64
2023/02/28 01:58:47;;;;;;;;;;;;;;;-0.90;83.86;95757.66;5045240;28;20075;-64
2023/02/28 02:01:21;;;;;;;27.45;21.48;;;;;;;-0.88;83.43;95755.84;5050822;28;19909;-64
2023/02/28 02:04:00;;;;;;;50.47;37.85;;;;;;;-0.83;83.21;95755.66;5043467;28;20383;-62
2023/02/28 02:06:38;;;;;;;54.20;39.30;;;;;;;-0.85;83.39;95754.03;5044767;28;20436;-60
2023/02/28 02:09:03;;;;;;;27.58;24.67;;;;;;;-0.87;83.35;95752.34;5047536;28;20449;-62
2023/02/28 02:11:29;;;;;;;20.63;18.55;;;;;;;-0.84;83.52;95750.53;5050034;28;20029;-63
2023/02/28 02:14:13;;;;;;;22.50;20.38;;;;;;;-0.76;83.40;95738.94;5036367;28;20017;-62
2023/02/28 02:16:57;;;;;;;27.77;24.48;;;;;;;-0.85;83.65;95747.13;5046923;28;20658;-62
2023/02/28 02:20:02;;;;;;;30.02;26.05;;;;;;;-0.88;84.60;95755.03;5036130;28;20033;-62
2023/02/28 02:22:56;;;;;;;22.83;20.63;;;;;;;-0.82;83.71;95748.72;5041523;28;20572;-62
2023/02/28 02:25:26;;;;;;;21.35;19.25;;;;;;;-0.84;83.96;95741.03;5047006;28;20037;-54
2023/02/28 02:28:20;;;;;;;21.63;19.80;;;;;;;-0.81;84.34;95755.56;5048823;28;20025;-60
2023/02/28 02:31:27;;;;;;;20.90;19.05;;;;;;;-0.88;85.26;95739.53;5051109;28;20021;-59
2023/02/28 02:34:02;;;;;;;23.55;21.35;;;;;;;-0.87;85.25;95742.00;5041517;28;20036;-58
2023/02/28 02:36:35;;;;;;;20.75;18.75;;;;;;;-0.89;85.07;95743.84;5045853;28;20104;-59
2023/02/28 02:39:12;;;;;;;24.70;22.15;;;;;;;-0.91;85.23;95739.63;5035623;28;20062;-60
2023/02/28 02:41:53;;;;;;;21.10;19.00;;;;;;;-0.87;84.44;95726.50;5048130;28;20118;-60
2023/02/28 02:44:31;;;;;;;21.60;19.60;;;;;;;-0.90;84.53;95731.81;5045601;28;20545;-64
2023/02/28 02:47:12;;;;;;;21.85;19.75;;;;;;;-0.95;85.21;95731.19;5037073;28;20009;-62
2023/02/28 02:49:43;;;;;;;20.02;18.33;;;;;;;-0.96;85.48;95729.53;5044236;28;20101;-62
2023/02/28 02:52:14;;;;;;;22.52;20.50;;;;;;;-1.03;86.20;95730.69;5043901;28;20124;-62
2023/02/28 02:54:46;;;;;;;26.13;23.52;;;;;;;-1.07;86.21;95724.00;5046041;28;20028;-62
2023/02/28 02:57:27;;;;;;;32.92;27.15;;;;;;;-1.07;87.08;95736.91;5040871;28;20511;-63
2023/02/28 02:59:55;;;;;;;25.48;22.98;;;;;;;-1.10;86.62;95734.47;5043775;28;20052;-62
2023/02/28 03:02:21;;;;;;;24.38;21.90;;;;;;;-1.10;86.22;95740.50;5049636;28;20052;-64
2023/02/28 03:04:52;;;;;;;27.25;24.55;;;;;;;-1.09;86.19;95739.59;5044645;28;20016;-64
2023/02/28 03:07:17;;;;;;;43.78;39.03;;;;;;;-1.10;85.88;95744.81;5043787;28;20100;-64
2023/02/28 03:09:52;;;;;;;26.40;23.65;;;;;;;-1.14;86.03;95745.88;5046291;28;20172;-64
2023/02/28 03:12:18;;;;;;;23.58;21.48;;;;;;;-1.18;85.97;95739.97;5041096;28;20070;-64
2023/02/28 03:15:06;;;;;;;28.05;25.13;;;;;;;-1.16;86.19;95740.75;5043860;28;20025;-64
2023/02/28 03:17:38;;;;;;;23.83;21.50;;;;;;;-1.17;86.32;95736.50;5019569;28;20414;-64
2023/02/28 03:20:09;;;;;;;22.65;20.48;;;;;;;-1.20;87.15;95734.06;5036915;28;20128;-64
2023/02/28 03:22:56;;;;;;;24.00;21.88;;;;;;;-1.20;87.62;95734.91;5049046;28;20029;-69
2023/02/28 03:26:00;;;;;;;22.58;20.58;;;;;;;-1.28;88.13;95726.63;5042500;28;20559;-67
2023/02/28 03:28:34;;;;;;;23.42;21.30;;;;;;;-1.33;89.22;95723.44;5027578;28;20499;-68
2023/02/28 03:31:19;;;;;;;22.17;20.30;;;;;;;-1.36;88.65;95719.22;5046639;28;20490;-67
2023/02/28 03:33:54;;;;;;;24.13;22.02;;;;;;;-1.30;88.18;95718.13;5045603;28;20494;-67
2023/02/28 03:36:24;;;;;;;24.63;22.05;;;;;;;-1.24;87.36;95725.59;5038956;28;20506;-67
2023/02/28 03:39:05;;;;;;;26.88;24.00;;;;;;;-1.22;87.13;95722.94;5043260;28;20029;-67
2023/02/28 03:41:42;;;;;;;26.33;23.60;;;;;;;-1.25;87.31;95726.50;5049150;28;20056;-68
2023/02/28 03:44:15;;;;;;;22.67;20.48;;;;;;;-1.28;87.36;95721.47;5040708;28;20017;-62
2023/02/28 03:46:45;;;;;;;28.67;25.73;;;;;;;-1.31;88.59;95726.78;5044753;28;20074;-54
2023/02/28 03:49:21;;;;;;;32.28;29.08;;;;;;;-1.36;88.22;95729.56;5032121;28;20035;-55
2023/02/28 03:51:49;;;;;;;26.90;23.95;;;;;;;-1.38;88.21;95736.53;5048498;28;20021;-51
2023/02/28 03:54:27;;;;;;;24.38;22.15;;;;;;;-1.37;88.40;95732.22;5045126;28;20040;-56
2023/02/28 03:57:28;;;;;;;24.42;22.15;;;;;;;-1.38;89.37;95730.56;5044509;28;20525;-51
2023/02/28 03:59:58;;;;;;;23.65;21.75;;;;;;;-1.33;89.35;95731.19;5022268;28;20060;-54
2023/02/28 04:02:24;;;;;;;23.95;21.85;;;;;;;-1.37;89.57;95730.47;5043373;28;20029;-64
2023/02/28 04:04:50;;;;;;;23.58;21.42;;;;;;;-1.39;89.69;95745.19;5041155;28;20027;-59
2023/02/28 04:07:16;;;;;;;22.00;20.00;;;;;;;-1.34;89.52;95739.84;5043315;28;20501;-60
2023/02/28 04:09:42;;;;;;;23.33;21.35;;;;;;;-1.34;89.03;95729.50;5044220;28;20022;-60
2023/02/28 04:12:08;;;;;;;23.83;21.63;;;;;;;-1.28;88.63;95739.56;5039610;28;20114;-61
2023/02/28 04:14:34;;;;;;;23.95;21.92;;;;;;;-1.33;88.82;95741.50;5043587;28;20025;-60
2023/02/28 04:16:59;;;;;;;26.48;24.23;;;;;;;-1.35;89.07;95751.06;5043378;28;20025;-60
2023/02/28 04:19:24;;;;;;;24.65;22.45;;;;;;;-1.39;89.29;95749.53;5042512;28;20557;-59
2023/02/28 04:21:51;;;;;;;31.25;28.55;;;;;;;-1.42;89.65;95760.00;5038304;28;20426;-62
2023/02/28 04:24:25;;;;;;;24.48;22.23;;;;;;;-1.44;89.60;95765.22;5041058;28;20051;-62
2023/02/28 04:26:54;;;;;;;23.58;21.48;;;;;;;-1.46;89.33;95765.28;5037525;28;20522;-61
2023/02/28 04:29:25;;;;;;;26.25;23.75;;;;;;;-1.44;88.91;95765.22;5044420;28;20410;-61
2023/02/28 04:31:53;;;;;;;22.98;20.73;;;;;;;-1.44;89.25;95762.66;5045139;28;20476;-61
2023/02/28 04:34:19;;;;;;;23.60;21.45;;;;;;;-1.41;88.33;95764.28;5039419;28;20025;-61
2023/02/28 04:36:45;;;;;;;22.88;20.90;;;;;;;-1.34;88.50;95771.66;5041167;28;20694;-62
2023/02/28 04:39:11;;;;;;;25.23;23.00;;;;;;;-1.30;88.14;95769.78;5043627;28;20029;-69
2023/02/28 04:41:37;;;;;;;23.05;21.15;;;;;;;-1.35;89.04;95777.72;5044365;28;20028;-69
2023/02/28 04:44:03;;;;;;;23.27;21.05;;;;;;;-1.39;89.46;95781.34;5033288;28;20026;-68
2023/02/28 04:46:28;;;;;;;22.05;20.05;;;;;;;-1.40;89.53;95781.44;5043243;28;20506;-67
2023/02/28 04:48:54;;;;;;;23.67;21.58;;;;;;;-1.38;89.72;95777.88;5042431;28;20017;-67
2023/02/28 04:51:20;;;;;;;23.20;20.80;;;;;;;-1.36;89.78;95775.22;5045050;28;20846;-67
2023/02/28 04:53:46;;;;;;;23.63;21.52;;;;;;;-1.38;90.31;95772.69;5043718;28;20463;-67
2023/02/28 04:56:13;;;;;;;23.70;21.80;;;;;;;-1.42;90.59;95771.16;5036128;28;20033;-66
2023/02/28 04:58:39;;;;;;;23.67;21.48;;;;;;;-1.40;90.00;95760.78;5042894;28;20040;-62
2023/02/28 05:01:18;;;;;;;22.75;20.65;;;;;;;-1.37;89.99;95758.88;5046049;28;20037;-56
2023/02/28 05:03:44;;;;;;;24.95;22.80;;;;;;;-1.39;89.81;95760.69;5040770;28;20038;-60
2023/02/28 05:06:11;;;;;;;24.05;21.80;;;;;;;-1.35;89.79;95762.22;5037228;28;20104;-60
2023/02/28 05:08:36;;;;;;;24.38;22.10;;;;;;;-1.35;89.91;95766.56;5041453;28;20036;-60
2023/02/28 05:11:02;;;;;;;24.23;21.92;;;;;;;-1.36;90.06;95765.72;5032359;28;20030;-60
2023/02/28 05:13:28;;;;;;;23.95;21.77;;;;;;;-1.38;90.45;95769.28;5035297;28;20271;-60
2023/02/28 05:15:54;;;;;;;21.85;20.00;;;;;;;-1.42;90.58;95771.16;5041702;28;20170;-60
2023/02/28 05:18:19;;;;;;;21.42;19.55;;;;;;;-1.45;90.10;95774.69;5042999;28;20025;-61
2023/02/28 05:20:45;;;;;;;23.33;21.30;;;;;;;-1.47;90.34;95783.44;5037779;28;20059;-61
2023/02/28 05:23:14;;;;;;;23.02;20.88;;;;;;;-1.45;90.61;95785.03;5042557;28;20625;-60
2023/02/28 05:25:40;;;;;;;23.27;21.13;;;;;;;-1.42;90.14;95780.66;5037346;28;20435;-60
2023/02/28 05:28:07;;;;;;;24.00;21.90;;;;;;;-1.45;89.92;95786.78;5039472;28;20033;-60
2023/02/28 05:30:32;;;;;;;24.52;22.27;;;;;;;-1.49;89.92;95787.84;5039249;28;20060;-60
2023/02/28 05:32:58;;;;;;;23.25;21.25;;;;;;;-1.52;90.40;95788.78;5046687;28;20056;-59
2023/02/28 05:35:24;;;;;;;23.33;21.30;;;;;;;-1.54;89.56;95788.03;5042310;28;20029;-60
2023/02/28 05:37:49;;;;;;;23.85;21.65;;;;;;;-1.58;89.81;95787.31;5039019;28;20614;-62
2023/02/28 05:40:15;;;;;;;28.05;25.45;;;;;;;-1.58;89.54;95784.72;5041254;28;20091;-60
2023/02/28 05:42:41;;;;;;;29.48;26.85;;;;;;;-1.59;89.95;95784.81;5041003;28;20033;-64
2023/02/28 05:45:07;;;;;;;28.08;25.48;;;;;;;-1.58;89.93;95783.91;5044588;28;20089;-64
2023/02/28 05:47:33;;;;;;;29.55;26.70;;;;;;;-1.59;90.48;95784.81;5044687;28;20097;-63
2023/02/28 05:49:58;;;;;;;30.75;27.85;;;;;;;-1.65;91.40;95769.59;5042857;28;20625;-64
2023/02/28 05:52:24;;;;;;;26.27;24.05;;;;;;;-1.68;91.68;95769.69;5041416;28;20522;-64
2023/02/28 05:54:49;;;;;;;25.08;22.88;;;;;;;-1.68;91.20;95774.84;5044598;28;20070;-63
2023/02/28 05:57:15;;;;;;;28.10;25.33;;;;;;;-1.66;91.07;95773.03;5051297;28;20045;-64
2023/02/28 05:59:41;;;;;;;27.75;25.15;;;;;;;-1.66;91.44;95784.22;5044327;28;20052;-60
2023/02/28 06:02:13;;;;;;;26.27;23.98;;;;;;;-1.65;90.99;95774.75;5043354;28;20025;-64
2023/02/28 06:04:40;;;;;;;30.30;27.70;;;;;;;-1.65;91.64;95777.34;5043301;28;20086;-64
2023/02/28 06:07:06;;;;;;;30.75;27.92;;;;;;;-1.62;91.78;95779.78;5048094;28;20446;-64
2023/02/28 06:09:31;;;;;;;30.75;28.00;;;;;;;-1.63;91.32;95788.44;5044259;28;20108;-64
2023/02/28 06:12:03;;;;;;;26.83;24.55;;;;;;;-1.62;91.36;95784.94;5044203;28;20502;-64
2023/02/28 06:14:30;;;;;;;26.92;24.55;;;;;;;-1.62;90.98;95784.94;5030699;28;20509;-63
2023/02/28 06:16:56;;;;;;;25.40;23.10;;;;;;;-1.63;90.60;95793.59;5044329;28;20052;-69
2023/02/28 06:19:22;;;;;;;23.90;21.63;;;;;;;-1.62;90.11;95788.34;5039727;28;20488;-63
2023/02/28 06:21:50;;;;;;;24.65;22.30;;;;;;;-1.63;91.66;95799.59;5043768;28;20017;-64
2023/02/28 06:24:16;;;;;;;24.38;22.27;;;;;;;-1.56;90.49;95805.34;5054073;28;20485;-64
2023/02/28 06:26:41;;;;;;;24.20;22.02;;;;;;;-1.47;89.97;95812.69;5048013;28;20123;-64
2023/02/28 06:29:07;;;;;;;22.70;20.70;;;;;;;-1.44;89.93;95814.31;5053308;28;20772;-64
2023/02/28 06:31:32;;;;;;;25.67;23.27;;;;;;;-1.37;90.42;95807.97;5051026;28;20396;-64
2023/02/28 06:33:58;;;;;;;25.52;23.13;;;;;;;-1.30;89.84;95808.53;5053755;28;20021;-63
2023/02/28 06:36:23;;;;;;;24.15;21.73;;;;;;;-1.28;89.75;95814.47;5050568;28;20025;-59
2023/02/28 06:38:54;;;;;;;25.35;22.98;;;;;;;-1.28;89.99;95819.63;5043183;28;20020;-60
2023/02/28 06:41:20;;;;;;;24.02;21.73;;;;;;;-1.24;89.61;95816.00;5041935;28;20445;-60
2023/02/28 06:43:45;;;;;;;25.10;22.67;;;;;;;-1.16;89.39;95808.78;5047475;28;20054;-60
2023/02/28 06:46:13;;;;;;;32.05;29.00;;;;;;;-1.21;89.56;95823.66;5035860;28;20017;-60
2023/02/28 06:48:40;;;;;;;25.80;23.45;;;;;;;-1.22;89.01;95824.53;5043103;28;20033;-60
2023/02/28 06:51:11;;;;;;;24.38;22.27;;;;;;;-1.19;88.92;95823.56;5045446;28;20063;-60
2023/02/28 06:53:36;;;;;;;22.17;20.17;;;;;;;-1.17;88.29;95837.25;5047330;28;20021;-61
2023/02/28 06:56:07;;;;;;;23.77;21.50;;;;;;;-1.13;87.89;95827.66;5022786;28;20050;-63
2023/02/28 06:58:33;;;;;;;23.17;21.13;;;;;;;-1.01;87.74;95834.84;5026830;28;20080;-60
2023/02/28 07:00:59;;;;;;;26.80;24.42;;;;;;;-1.05;87.50;95828.13;5026890;28;20037;-60
2023/02/28 07:03:24;;;;;;;28.17;25.38;;;;;;;-1.01;86.93;95832.25;5023500;28;20029;-60
2023/02/28 07:05:50;;;;;;;23.50;21.40;;;;;;;-1.01;87.36;95830.53;5025971;28;20028;-59
2023/02/28 07:08:16;;;;;;;32.35;26.83;;;;;;;-1.01;87.01;95829.66;5031585;28;20031;-60
2023/02/28 07:10:41;;;;;;;53.40;37.38;;;;;;;-1.04;86.69;95833.25;5025583;28;20028;-60
2023/02/28 07:13:08;;;;;;;89.43;52.92;;;;;;;-1.03;86.85;95839.25;5023207;28;20026;-57
2023/02/28 07:15:34;;;;;;;65.35;45.58;;;;;;;-1.03;86.42;95834.94;5027035;28;20083;-64
2023/02/28 07:17:59;;;;;;;36.03;28.23;;;;;;;-1.02;86.75;95841.78;5021104;28;20411;-62
2023/02/28 07:20:25;;;;;;;62.53;42.05;;;;;;;-0.95;86.39;95844.06;5021611;28;20069;-62
2023/02/28 07:22:56;;;;;;;51.30;37.45;;;;;;;-0.94;86.01;95844.03;5026036;28;20029;-62
2023/02/28 07:25:26;;;;;;;59.50;42.20;;;;;;;-0.85;85.86;95847.09;5021621;28;20083;-63
2023/02/28 07:27:52;;;;;;;38.50;31.90;;;;;;;-0.80;85.99;95851.16;5027005;28;20025;-63
2023/02/28 07:30:18;;;;;;;48.42;36.20;;;;;;;-0.64;85.84;95856.47;5026870;28;20103;-64
2023/02/28 07:32:43;;;;;;;28.13;25.13;;;;;;;-0.56;85.18;95853.53;5028427;28;20487;-62
2023/02/28 07:35:09;;;;;;;23.90;21.42;;;;;;;-0.45;84.96;95860.81;5029095;28;20044;-67
2023/02/28 07:37:37;;;;;;;74.55;48.33;;;;;;;-0.36;83.88;95864.72;5021146;28;20026;-63
2023/02/28 07:40:09;;;;;;;24.38;22.08;;;;;;;-0.40;83.16;95861.44;5026304;28;20703;-62
2023/02/28 07:42:35;;;;;;;39.72;32.88;;;;;;;-0.40;83.45;95863.19;5022216;28;20071;-63
2023/02/28 07:45:01;;;;;;;109.38;67.38;;;;;;;-0.44;84.23;95863.34;5024783;28;20553;-63
2023/02/28 07:47:28;;;;;;;63.15;44.88;;;;;;;-0.42;83.60;95865.03;5018130;28;20025;-63
2023/02/28 07:49:54;;;;;;;41.40;33.70;;;;;;;-0.46;84.64;95859.97;5027313;28;20022;-62
2023/02/28 07:52:19;;;;;;;40.47;35.00;;;;;;;-0.41;84.88;95859.75;5035625;28;20040;-60
2023/02/28 07:54:44;;;;;;;27.63;24.98;;;;;;;-0.24;84.55;95858.97;5036684;28;20029;-63
2023/02/28 07:57:10;;;;;;;23.20;20.98;;;;;;;-0.06;82.59;95859.88;5059991;28;20079;-73
2023/02/28 07:59:35;;;;;;;23.20;21.13;;;;;;;-0.06;82.43;95864.19;5050994;28;20028;-73
2023/02/28 08:02:00;;;;;;;23.27;21.27;;;;;;;-0.03;81.74;95866.63;5058167;28;20410;-73
2023/02/28 08:04:26;;;;;;;22.42;20.52;;;;;;;0.07;81.94;95878.25;5049358;28;20520;-73
2023/02/28 08:06:56;;;;;;;22.92;20.83;;;;;;;-0.03;81.82;95867.50;5049293;28;20033;-73
2023/02/28 08:09:21;;;;;;;22.55;20.33;;;;;;;0.08;81.41;95869.56;5052697;28;20549;-73
2023/02/28 08:11:47;;;;;;;24.98;22.75;;;;;;;0.10;81.16;95862.56;5063746;28;20112;-63
2023/02/28 08:14:12;;;;;;;22.35;20.15;;;;;;;0.12;81.98;95865.09;5036423;28;20057;-63
2023/02/28 08:16:38;;;;;;;22.63;20.83;;;;;;;0.10;81.82;95878.09;5040548;28;20029;-63
2023/02/28 08:19:03;;;;;;;23.48;21.10;;;;;;;0.16;82.13;95882.16;5035963;28;20094;-63
2023/02/28 08:21:29;;;;;;;23.02;20.92;;;;;;;0.26;81.30;95875.59;5049471;28;20474;-63
2023/02/28 08:23:56;;;;;;;21.98;20.17;;;;;;;0.34;81.03;95882.19;5053496;28;20589;-63
2023/02/28 08:26:22;;;;;;;22.27;20.42;;;;;;;0.48;80.46;95865.97;5059466;28;20036;-63
2023/02/28 08:28:47;;;;;;;23.27;21.23;;;;;;;0.53;79.44;95866.56;5047275;28;20024;-62
2023/02/28 08:31:15;;;;;;;23.27;21.38;;;;;;;0.60;79.89;95872.28;5040565;28;20036;-73
2023/02/28 08:33:40;;;;;;;26.88;24.38;;;;;;;0.59;78.68;95874.03;5035402;28;20025;-67
2023/02/28 08:36:07;;;;;;;24.40;21.95;;;;;;;0.72;79.13;95876.84;5057450;28;20032;-64
2023/02/28 08:38:33;;;;;;;23.40;21.27;;;;;;;0.66;78.14;95869.38;5052059;28;20545;-62
2023/02/28 08:41:00;;;;;;;21.15;19.25;;;;;;;0.74;78.33;95876.78;5049251;28;20061;-63
2023/02/28 08:43:26;;;;;;;26.02;23.33;;;;;;;0.69;78.35;95870.09;5048224;28;20110;-63
2023/02/28 08:45:52;;;;;;;20.77;18.98;;;;;;;0.76;77.65;95869.75;5048944;28;20060;-63
2023/02/28 08:48:17;;;;;;;21.70;19.75;;;;;;;0.62;78.65;95871.28;5049059;28;20494;-63
2023/02/28 08:50:43;;;;;;;24.45;21.83;;;;;;;0.66;78.21;95871.97;5057974;28;20093;-63
2023/02/28 08:53:08;;;;;;;32.28;28.30;;;;;;;0.83;77.65;95873.72;5052336;28;20063;-55
2023/02/28 08:55:33;;;;;;;24.27;21.88;;;;;;;0.95;77.18;95869.66;5043178;28;20083;-63
2023/02/28 08:58:00;;;;;;;37.83;29.10;;;;;;;1.15;76.94;95871.25;5048134;28;20104;-63
2023/02/28 09:00:26;;;;;;;22.00;20.00;;;;;;;1.22;76.28;95874.38;5048696;28;20082;-63
2023/02/28 09:02:51;;;;;;;22.17;20.30;;;;;;;1.33;74.94;95872.03;5064317;28;20491;-63
2023/02/28 09:05:17;;;;;;;24.42;22.02;;;;;;;1.23;74.89;95866.47;5028811;28;20032;-63
2023/02/28 09:07:42;;;;;;;22.90;21.00;;;;;;;1.22;75.83;95870.00;5046923;28;20016;-63
2023/02/28 09:10:08;;;;;;;20.83;19.05;;;;;;;1.13;74.62;95868.72;5061909;28;20020;-63
2023/02/28 09:12:35;;;;;;;22.40;20.38;;;;;;;1.26;75.28;95874.09;5044382;28;20033;-67
2023/02/28 09:15:00;;;;;;;21.55;19.77;;;;;;;1.28;75.32;95866.25;5054800;28;20031;-63
2023/02/28 09:17:26;;;;;;;23.60;21.58;;;;;;;1.41;75.44;95871.63;5066593;28;20009;-64
2023/02/28 09:19:51;;;;;;;21.42;19.35;;;;;;;1.42;74.96;95873.31;5047672;28;20021;-63
2023/02/28 09:22:16;;;;;;;21.65;19.75;;;;;;;1.51;74.82;95866.78;5063215;28;20031;-62
2023/02/28 09:24:42;;;;;;;23.40;20.88;;;;;;;1.47;75.20;95873.06;5062478;28;20021;-63
2023/02/28 09:27:07;;;;;;;23.73;21.42;;;;;;;1.45;75.30;95878.31;5066633;28;20074;-63
2023/02/28 09:29:34;;;;;;;21.98;20.17;;;;;;;1.34;74.50;95875.47;5071298;28;20393;-62
2023/02/28 09:32:00;;;;;;;22.92;20.85;;;;;;;1.40;75.91;95886.34;5067492;28;20021;-63
2023/02/28 09:34:26;;;;;;;21.83;19.92;;;;;;;1.61;74.48;95883.53;5059741;28;20036;-63
2023/02/28 09:36:54;;;;;;;23.23;21.05;;;;;;;1.60;74.38;95884.44;5054386;28;20029;-63
2023/02/28 09:39:21;;;;;;;22.42;20.50;;;;;;;1.40;74.79;95881.16;5070369;28;20024;-63
2023/02/28 09:41:51;;;;;;;21.65;19.88;;;;;;;1.53;74.52;95881.34;5055745;28;20017;-63
2023/02/28 09:44:22;;;;;;;22.42;20.15;;;;;;;1.59;74.16;95890.56;5069748;28;20039;-63
2023/02/28 09:46:53;;;;;;;23.00;20.90;;;;;;;1.47;74.84;95886.88;5064910;28;20071;-63
2023/02/28 09:49:33;;;;;;;21.95;19.92;;;;;;;1.42;74.74;95889.69;5052081;28;20565;-61
2023/02/28 09:52:08;;;;;;;22.13;20.23;;;;;;;1.38;73.98;95893.38;5046322;28;20470;-63
2023/02/28 09:54:35;;;;;;;21.35;19.42;;;;;;;1.37;73.42;95891.69;5070702;28;20026;-63
2023/02/28 09:57:25;;;;;;;22.60;20.58;;;;;;;1.28;72.83;95887.81;5062813;28;20036;-63
2023/02/28 10:00:18;;;;;;;21.80;19.85;;;;;;;1.29;73.31;95889.50;5049348;28;20028;-63
2023/02/28 10:03:06;;;;;;;21.65;19.85;;;;;;;1.41;74.65;95895.81;5060496;28;20041;-63
2023/02/28 10:05:31;;;;;;;21.00;19.23;;;;;;;1.63;72.15;95896.44;5048400;28;20075;-62
2023/02/28 10:08:11;;;;;;;20.95;19.05;;;;;;;1.69;70.72;95896.97;5071668;28;20093;-73
2023/02/28 10:10:43;;;;;;;22.08;20.02;;;;;;;1.71;70.83;95900.31;5067208;28;20116;-60
2023/02/28 10:13:25;;;;;;;21.33;19.42;;;;;;;1.73;71.50;95897.59;5051405;28;20548;-57
2023/02/28 10:15:56;;;;;;;21.70;19.88;;;;;;;1.81;71.35;95899.78;5050055;28;20033;-56
2023/02/28 10:18:29;;;;;;;22.30;20.30;;;;;;;1.83;72.37;95897.94;5034530;28;20025;-57
2023/02/28 10:20:55;;;;;;;24.85;22.35;;;;;;;1.88;72.61;95902.91;5040516;28;20032;-57
2023/02/28 10:23:27;;;;;;;22.75;20.60;;;;;;;2.13;71.73;95902.41;5051760;28;20032;-55
2023/02/28 10:25:59;;;;;;;20.70;18.98;;;;;;;2.24;70.07;95907.84;5051192;28;20013;-56
2023/02/28 10:28:28;;;;;;;21.15;19.25;;;;;;;2.42;68.73;95903.34;5051163;28;20033;-64
2023/02/28 10:30:54;;;;;;;19.83;17.98;;;;;;;2.55;67.91;95906.13;5063398;28;20024;-62
2023/02/28 10:33:34;;;;;;;21.98;20.05;;;;;;;2.15;69.02;95905.75;5049930;28;20028;-63
2023/02/28 10:36:00;;;;;;;22.85;20.65;;;;;;;1.99;70.40;95903.16;5048297;28;20026;-62
2023/02/28 10:38:33;;;;;;;22.30;20.00;;;;;;;2.05;69.40;95901.97;5065207;28;20599;-63
2023/02/28 10:41:10;;;;;;;21.27;19.40;;;;;;;1.84;68.67;95912.59;5050126;28;20197;-63
2023/02/28 10:43:37;;;;;;;21.45;19.45;;;;;;;1.87;69.23;95909.84;5051759;28;20093;-63
2023/02/28 10:46:09;;;;;;;21.08;19.33;;;;;;;2.02;67.78;95913.38;5058771;28;20025;-63
2023/02/28 10:48:44;;;;;;;20.05;18.40;;;;;;;1.94;68.80;95916.41;5060961;28;20129;-57
2023/02/28 10:51:12;;;;;;;21.00;19.08;;;;;;;1.98;68.63;95914.44;5048946;28;20028;-67
2023/02/28 10:53:47;;;;;;;21.10;19.20;;;;;;;2.24;68.42;95915.63;5045941;28;20057;-67
2023/02/28 10:56:17;;;;;;;22.33;20.35;;;;;;;2.19;68.34;95915.06;5068110;28;20072;-67
2023/02/28 10:58:51;;;;;;;21.27;19.27;;;;;;;2.03;69.83;95916.81;5060928;28;20028;-68
2023/02/28 11:01:20;;;;;;;23.15;18.70;;;;;;;2.36;68.40;95918.47;5048711;28;20021;-67
2023/02/28 11:03:46;;;;;;;20.25;18.45;;;;;;;2.26;68.09;95912.94;5049777;28;20016;-67
2023/02/28 11:06:24;;;;;;;19.20;17.35;;;;;;;2.62;65.59;95910.97;5057834;28;20028;-62
2023/02/28 11:08:53;;;;;;;20.88;19.05;;;;;;;2.53;65.33;95912.31;5054146;28;20682;-57
2023/02/28 11:11:21;;;;;;;22.95;20.85;;;;;;;2.24;66.32;95907.00;5059492;28;20532;-63
2023/02/28 11:13:52;;;;;;;20.95;18.88;;;;;;;2.08;66.76;95907.00;5057107;28;20410;-63
2023/02/28 11:16:18;;;;;;;22.15;20.15;;;;;;;2.18;68.32;95900.38;5058697;28;20032;-63
2023/02/28 11:18:49;;;;;;;20.98;19.15;;;;;;;2.29;66.18;95899.78;5069878;28;20041;-63
2023/02/28 11:21:33;;;;;;;22.02;19.88;;;;;;;2.43;67.10;95902.47;5068254;28;20110;-63
2023/02/28 11:24:24;;;;;;;20.70;18.92;;;;;;;2.54;66.81;95898.41;5033970;28;20476;-63
2023/02/28 11:26:50;;;;;;;21.17;19.35;;;;;;;2.62;66.78;95898.78;5041598;28;20040;-74
2023/02/28 11:29:24;;;;;;;21.60;19.73;;;;;;;2.84;66.54;95894.94;5036929;28;20028;-62